• Join FlightAware (Why Join?)
  • Login
  • US Flag 
02:02AM EDT


 

Airport Tracker/Info


-or-


 

Live Flight TrackerFlight Track Log ✈ AFL150 ✈ 18-Nov-2013 ✈ UUEE / SVO - MUHA / HAV

Flight Track Log - Related Links

Times and Time Zones

All times are in EST time to prevent confusion due to time zone crossing. See the AFL150 flight status page for this flight to view local times or setup timezone preferences in your user account.

Time Position Orientation Groundspeed Altitude Reporting Facility
EST Latitude Longitude Course Direction KTS MPH feet Rate Location/Type
04:20AM 56.1213 37.0737 307° West  Level Estimated
04:21AM 56.1887 36.9100 307° West  Level Estimated
04:22AM 56.2558 36.7458 306° West  Level Estimated
04:23AM 56.3228 36.5811 306° West  Level Estimated
04:24AM 56.3895 36.4157 306° West  Level Estimated
04:25AM 56.4560 36.2498 306° West  Level Estimated
04:26AM 56.5222 36.0833 306° West  Level Estimated
04:27AM 56.5883 35.9162 306° West  Level Estimated
04:28AM 56.6541 35.7485 306° West  Level Estimated
04:29AM 56.7197 35.5803 305° West  Level Estimated
04:30AM 56.7850 35.4114 305° West  Level Estimated
04:31AM 56.8502 35.2420 305° West  Level Estimated
04:32AM 56.9151 35.0720 305° West  Level Estimated
04:33AM 56.9798 34.9014 305° West  Level Estimated
04:34AM 57.0442 34.7302 305° West  Level Estimated
04:35AM 57.1084 34.5584 305° West  Level Estimated
04:36AM 57.1724 34.3860 304° West  Level Estimated
04:37AM 57.2361 34.2130 304° West  Level Estimated
04:38AM 57.2996 34.0394 304° West  Level Estimated
04:39AM 57.3629 33.8652 304° West  Level Estimated
04:40AM 57.4259 33.6904 304° West  Level Estimated
04:41AM 57.4886 33.5150 304° West  Level Estimated
04:42AM 57.5512 33.3390 304° West  Level Estimated
04:43AM 57.6134 33.1624 303° West  Level Estimated
04:44AM 57.6755 32.9852 303° West  Level Estimated
04:45AM 57.7373 32.8074 303° West  Level Estimated
04:46AM 57.7980 32.6313 303° West  Level Estimated
04:47AM 57.8585 32.4546 303° West  Level Estimated
04:48AM 57.9187 32.2773 303° West  Level Estimated
04:49AM 57.9787 32.0995 303° West  Level Estimated
04:50AM 58.0385 31.9210 302° West  Level Estimated
04:51AM 58.0980 31.7419 302° West  Level Estimated
04:52AM 58.1572 31.5623 302° West  Level Estimated
04:53AM 58.2162 31.3820 302° West  Level Estimated
04:54AM 58.2750 31.2011 302° West  Level Estimated
04:55AM 58.3335 31.0197 302° West  Level Estimated
04:56AM 58.3917 30.8376 301° West  Level Estimated
04:57AM 58.4496 30.6549 301° West  Level Estimated
04:58AM 58.5074 30.4717 301° West  Level Estimated
04:59AM 58.5648 30.2878 301° West  Level Estimated
05:00AM 58.6220 30.1033 301° West  Level Estimated
05:01AM 58.6789 29.9183 301° West  Level Estimated
05:02AM 58.7355 29.7326 301° West  Level Estimated
05:03AM 58.7919 29.5463 300° West  Level Estimated
05:04AM 58.8480 29.3594 300° West  Level Estimated
05:05AM 58.9039 29.1719 300° West  Level Estimated
05:06AM 58.9594 28.9838 300° West  Level Estimated
05:07AM 59.0148 28.7951 300° West  Level Estimated
05:08AM 59.0698 28.6058 300° West  Level Estimated
05:09AM 59.1245 28.4159 299° West  Level Estimated
05:10AM 59.1790 28.2254 299° West  Level Estimated
05:11AM 59.2332 28.0343 299° West  Level Estimated
05:12AM 59.2871 27.8425 299° West  Level Estimated
05:13AM 59.3407 27.6502 299° West  Level Estimated
05:14AM 59.3940 27.4572 299° West  Level Estimated
05:15AM 59.4471 27.2637 298° West  Level Estimated
05:16AM 59.4999 27.0695 298° West  Level Estimated
05:17AM 59.5523 26.8748 298° West  Level Estimated
05:18AM 59.6045 26.6794 298° West  Level Estimated
05:19AM 59.6564 26.4834 298° West  Level Estimated
05:20AM 59.7080 26.2868 298° West  Level Estimated
05:21AM 59.7593 26.0896 297° West  Level Estimated
05:22AM 59.8103 25.8918 297° West  Level Estimated
05:23AM 59.8610 25.6934 297° West  Level Estimated
05:24AM 59.9115 25.4944 297° West  Level Estimated
05:25AM 59.9616 25.2948 297° West  Level Estimated
05:26AM 60.0114 25.0946 297° West  Level Estimated
05:27AM 60.0609 24.8938 296° West  Level Estimated
05:28AM 60.1101 24.6924 296° West  Level Estimated
05:29AM 60.1590 24.4904 296° West  Level Estimated
05:30AM 60.2076 24.2878 296° West  Level Estimated
05:31AM 60.2559 24.0845 296° West  Level Estimated
05:32AM 60.3038 23.8807 295° West  Level Estimated
05:33AM 60.3515 23.6763 295° West  Level Estimated
05:34AM 60.3988 23.4713 295° West  Level Estimated
05:35AM 60.4458 23.2657 295° West  Level Estimated
05:36AM 60.4925 23.0595 295° West  Level Estimated
05:37AM 60.5389 22.8527 295° West  Level Estimated
05:38AM 60.5850 22.6453 294° West  Level Estimated
05:39AM 60.6307 22.4374 294° West  Level Estimated
05:40AM 60.6762 22.2288 294° West  Level Estimated
05:41AM 60.7212 22.0197 294° West  Level Estimated
05:42AM 60.7660 21.8099 294° West  Level Estimated
05:43AM 60.8105 21.5996 294° West  Level Estimated
05:44AM 60.8546 21.3887 293° West  Level Estimated
05:45AM 60.8983 21.1772 293° West  Level Estimated
05:46AM 60.9418 20.9652 293° West  Level Estimated
05:47AM 60.9849 20.7525 293° West  Level Estimated
05:48AM 61.0277 20.5393 293° West  Level Estimated
05:49AM 61.0701 20.3255 292° West  Level Estimated
05:50AM 61.1122 20.1112 292° West  Level Estimated
05:51AM 61.1540 19.8962 292° West  Level Estimated
05:52AM 61.1954 19.6807 292° West  Level Estimated
05:53AM 61.2365 19.4647 292° West  Level Estimated
05:54AM 61.2772 19.2481 291° West  Level Estimated
05:55AM 61.3176 19.0309 291° West  Level Estimated
05:56AM 61.3577 18.8132 291° West  Level Estimated
05:57AM 61.3973 18.5949 291° West  Level Estimated
05:58AM 61.4367 18.3760 291° West  Level Estimated
05:59AM 61.4757 18.1566 290° West  Level Estimated
06:00AM 61.5143 17.9366 290° West  Level Estimated
06:01AM 61.5526 17.7162 290° West  Level Estimated
06:02AM 61.5905 17.4951 290° West  Level Estimated
06:03AM 61.6281 17.2736 290° West  Level Estimated
06:04AM 61.6653 17.0515 290° West  Level Estimated
06:05AM 61.7021 16.8288 289° West  Level Estimated
06:06AM 61.7386 16.6056 289° West  Level Estimated
06:07AM 61.7747 16.3819 289° West  Level Estimated
06:08AM 61.8105 16.1577 289° West  Level Estimated
06:09AM 61.8459 15.9330 289° West  Level Estimated
06:10AM 61.8809 15.7077 288° West  Level Estimated
06:11AM 61.9155 15.4819 288° West  Level Estimated
06:12AM 61.9498 15.2557 288° West  Level Estimated
06:13AM 61.9837 15.0289 288° West  Level Estimated
06:14AM 62.0173 14.8016 288° West  Level Estimated
06:15AM 62.0504 14.5738 287° West  Level Estimated
06:16AM 62.0832 14.3455 287° West  Level Estimated
06:17AM 62.1156 14.1167 287° West  Level Estimated
06:18AM 62.1476 13.8875 287° West  Level Estimated
06:19AM 62.1793 13.6578 287° West  Level Estimated
06:20AM 62.2106 13.4275 286° West  Level Estimated
06:21AM 62.2415 13.1968 286° West  Level Estimated
06:22AM 62.2719 12.9657 286° West  Level Estimated
06:23AM 62.3021 12.7340 286° West  Level Estimated
06:24AM 62.3318 12.5020 286° West  Level Estimated
06:25AM 62.3611 12.2694 285° West  Level Estimated
06:26AM 62.3901 12.0364 285° West  Level Estimated
06:27AM 62.4187 11.8029 285° West  Level Estimated
06:28AM 62.4469 11.5691 285° West  Level Estimated
06:29AM 62.4746 11.3347 284° West  Level Estimated
06:30AM 62.5020 11.1000 284° West  Level Estimated
06:31AM 62.5290 10.8648 284° West  Level Estimated
06:32AM 62.5556 10.6292 284° West  Level Estimated
06:33AM 62.5818 10.3931 284° West  Level Estimated
06:34AM 62.6076 10.1567 283° West  Level Estimated
06:35AM 62.6330 9.9198 283° West  Level Estimated
06:36AM 62.6581 9.6826 283° West  Level Estimated
06:37AM 62.6827 9.4449 283° West  Level Estimated
06:38AM 62.7068 9.2069 283° West  Level Estimated
06:39AM 62.7307 8.9684 282° West  Level Estimated
06:40AM 62.7540 8.7296 282° West  Level Estimated
06:41AM 62.7770 8.4904 282° West  Level Estimated
06:42AM 62.7996 8.2508 282° West  Level Estimated
06:43AM 62.8218 8.0109 282° West  Level Estimated
06:44AM 62.8435 7.7706 281° West  Level Estimated
06:45AM 62.8649 7.5300 281° West  Level Estimated
06:46AM 62.8858 7.2890 281° West  Level Estimated
06:47AM 62.9064 7.0477 281° West  Level Estimated
06:48AM 62.9265 6.8060 280° West  Level Estimated
06:49AM 62.9462 6.5640 280° West  Level Estimated
06:50AM 62.9655 6.3217 280° West  Level Estimated
06:51AM 62.9843 6.0791 280° West  Level Estimated
06:52AM 63.0028 5.8361 280° West  Level Estimated
06:53AM 63.0208 5.5929 279° West  Level Estimated
06:54AM 63.0385 5.3493 279° West  Level Estimated
06:55AM 63.0557 5.1055 279° West  Level Estimated
06:56AM 63.0724 4.8614 279° West  Level Estimated
06:57AM 63.0888 4.6170 279° West  Level Estimated
06:58AM 63.1047 4.3723 278° West  Level Estimated
06:59AM 63.1203 4.1274 278° West  Level Estimated
07:00AM 63.1354 3.8822 278° West  Level Estimated
07:01AM 63.1500 3.6368 278° West  Level Estimated
07:02AM 63.1643 3.3911 277° West  Level Estimated
07:03AM 63.1781 3.1452 277° West  Level Estimated
07:04AM 63.1915 2.8990 277° West  Level Estimated
07:05AM 63.2045 2.6526 277° West  Level Estimated
07:06AM 63.2170 2.4060 277° West  Level Estimated
07:07AM 63.2291 2.1592 276° West  Level Estimated
07:08AM 63.2408 1.9122 276° West  Level Estimated
07:09AM 63.2521 1.6650 276° West  Level Estimated
07:10AM 63.2629 1.4176 276° West  Level Estimated
07:11AM 63.2733 1.1700 275° West  Level Estimated
07:12AM 63.2833 0.9223 275° West  Level Estimated
07:13AM 63.2929 0.6744 275° West  Level Estimated
07:14AM 63.3020 0.4263 275° West  Level Estimated
07:15AM 63.3107 0.1780 275° West  Level Estimated
07:16AM 63.3189 -0.0703 274° West  Level Estimated
07:17AM 63.3267 -0.3189 274° West  Level Estimated
07:18AM 63.3341 -0.5675 274° West  Level Estimated
07:19AM 63.3411 -0.8163 274° West  Level Estimated
07:20AM 63.3476 -1.0652 273° West  Level Estimated
07:21AM 63.3537 -1.3142 273° West  Level Estimated
07:22AM 63.3593 -1.5633 273° West  Level Estimated
07:23AM 63.3646 -1.8125 273° West  Level Estimated
07:24AM 63.3693 -2.0618 273° West  Level Estimated
07:25AM 63.3737 -2.3111 272° West  Level Estimated
07:26AM 63.3776 -2.5606 272° West  Level Estimated
07:27AM 63.3811 -2.8101 272° West  Level Estimated
07:28AM 63.3841 -3.0596 272° West  Level Estimated
07:29AM 63.3867 -3.3092 271° West  Level Estimated
07:30AM 63.3889 -3.5589 271° West  Level Estimated
07:31AM 63.3906 -3.8085 271° West  Level Estimated
07:32AM 63.3919 -4.0583 271° West  Level Estimated
07:33AM 63.3928 -4.3080 271° West  Level Estimated
07:34AM 63.3932 -4.5577 270° West  Level Estimated
07:35AM 63.3932 -4.8075 270° West  Level Estimated
07:36AM 63.3928 -5.0572 270° West  Level Estimated
07:37AM 63.3919 -5.3069 270° West  Level Estimated
07:38AM 63.3906 -5.5566 269° West  Level Estimated
07:39AM 63.3888 -5.8063 269° West  Level Estimated
07:40AM 63.3867 -6.0560 269° West  Level Estimated
07:41AM 63.3840 -6.3056 269° West  Level Estimated
07:42AM 63.3810 -6.5551 269° West  Level Estimated
07:43AM 63.3775 -6.8046 268° West  Level Estimated
07:44AM 63.3736 -7.0540 268° West  Level Estimated
07:45AM 63.3692 -7.3034 268° West  Level Estimated
07:46AM 63.3644 -7.5527 268° West  Level Estimated
07:47AM 63.3592 -7.8019 267° West  Level Estimated
07:48AM 63.3535 -8.0510 267° West  Level Estimated
07:49AM 63.3474 -8.3000 267° West  Level Estimated
07:50AM 63.3409 -8.5489 267° West  Level Estimated
07:51AM 63.3339 -8.7976 267° West  Level Estimated
07:52AM 63.3265 -9.0463 266° West  Level Estimated
07:53AM 63.3187 -9.2948 266° West  Level Estimated
07:54AM 63.3104 -9.5432 266° West  Level Estimated
07:55AM 63.3017 -9.7914 266° West  Level Estimated
07:56AM 63.2926 -10.0395 265° West  Level Estimated
07:57AM 63.2830 -10.2874 265° West  Level Estimated
07:58AM 63.2730 -10.5352 265° West  Level Estimated
07:59AM 63.2626 -10.7827 265° West  Level Estimated
08:00AM 63.2518 -11.0301 265° West  Level Estimated
08:01AM 63.2405 -11.2773 264° West  Level Estimated
08:02AM 63.2288 -11.5243 264° West  Level Estimated
08:03AM 63.2166 -11.7711 264° West  Level Estimated
08:04AM 63.2041 -12.0177 264° West  Level Estimated
08:05AM 63.1911 -12.2641 263° West  Level Estimated
08:06AM 63.1777 -12.5102 263° West  Level Estimated
08:07AM 63.1638 -12.7562 263° West  Level Estimated
08:08AM 63.1496 -13.0018 263° West  Level Estimated
08:09AM 63.1349 -13.2473 263° West  Level Estimated
08:10AM 63.1198 -13.4924 262° West  Level Estimated
08:11AM 63.1042 -13.7374 262° West  Level Estimated
08:12AM 63.0883 -13.9820 262° West  Level Estimated
08:13AM 63.0719 -14.2264 262° West  Level Estimated
08:14AM 63.0551 -14.4705 261° West  Level Estimated
08:15AM 63.0379 -14.7143 261° West  Level Estimated
08:16AM 63.0202 -14.9579 261° West  Level Estimated
08:17AM 63.0022 -15.2011 261° West  Level Estimated
08:18AM 62.9837 -15.4440 261° West  Level Estimated
08:19AM 62.9648 -15.6867 260° West  Level Estimated
08:20AM 62.9455 -15.9290 260° West  Level Estimated
08:21AM 62.9258 -16.1709 260° West  Level Estimated
08:22AM 62.9057 -16.4126 260° West  Level Estimated
08:23AM 62.8851 -16.6539 260° West  Level Estimated
08:24AM 62.8642 -16.8949 259° West  Level Estimated
08:25AM 62.8428 -17.1355 259° West  Level Estimated
08:26AM 62.8210 -17.3758 259° West  Level Estimated
08:27AM 62.7988 -17.6157 259° West  Level Estimated
08:28AM 62.7762 -17.8552 258° West  Level Estimated
08:29AM 62.7533 -18.0944 258° West  Level Estimated
08:30AM 62.7298 -18.3332 258° West  Level Estimated
08:31AM 62.7060 -18.5716 258° West  Level Estimated
08:32AM 62.6818 -18.8097 258° West  Level Estimated
08:33AM 62.6572 -19.0473 257° West  Level Estimated
08:34AM 62.6322 -19.2846 257° West  Level Estimated
08:35AM 62.6068 -19.5214 257° West  Level Estimated
08:36AM 62.5809 -19.7579 257° West  Level Estimated
08:37AM 62.5547 -19.9939 257° West  Level Estimated
08:38AM 62.5281 -20.2295 256° West  Level Estimated
08:39AM 62.5011 -20.4646 256° West  Level Estimated
08:40AM 62.4737 -20.6994 256° West  Level Estimated
08:41AM 62.4459 -20.9337 256° West  Level Estimated
08:42AM 62.4177 -21.1676 256° West  Level Estimated
08:43AM 62.3891 -21.4010 255° West  Level Estimated
08:44AM 62.3602 -21.6340 255° West  Level Estimated
08:45AM 62.3308 -21.8666 255° West  Level Estimated
08:46AM 62.3010 -22.0986 255° West  Level Estimated
08:47AM 62.2709 -22.3302 254° West  Level Estimated
08:48AM 62.2404 -22.5614 254° West  Level Estimated
08:49AM 62.2095 -22.7921 254° West  Level Estimated
08:50AM 62.1782 -23.0223 254° West  Level Estimated
08:51AM 62.1466 -23.2520 254° West  Level Estimated
08:52AM 62.1145 -23.4813 253° West  Level Estimated
08:53AM 62.0821 -23.7100 253° West  Level Estimated
08:54AM 62.0493 -23.9383 253° West  Level Estimated
08:55AM 62.0161 -24.1660 253° West  Level Estimated
08:56AM 61.9826 -24.3933 253° West  Level Estimated
08:57AM 61.9487 -24.6201 252° West  Level Estimated
08:58AM 61.9105 -24.8714 252° West  Level Estimated
08:59AM 61.8719 -25.1225 252° West  Level Estimated
09:00AM 61.8328 -25.3727 252° West  Level Estimated
09:01AM 61.7933 -25.6224 252° West  Level Estimated
09:02AM 61.7533 -25.8714 251° West  Level Estimated
09:03AM 61.7129 -26.1197 251° West  Level Estimated
09:04AM 61.6721 -26.3674 251° West  Level Estimated
09:05AM 61.6307 -26.6145 251° West  Level Estimated
09:06AM 61.5890 -26.8608 250° West  Level Estimated
09:07AM 61.5468 -27.1065 250° West  Level Estimated
09:08AM 61.5041 -27.3516 250° West  Level Estimated
09:09AM 61.4611 -27.5959 250° West  Level Estimated
09:10AM 61.4175 -27.8396 250° West  Level Estimated
09:11AM 61.3736 -28.0826 249° West  Level Estimated
09:12AM 61.3292 -28.3249 249° West  Level Estimated
09:13AM 61.2844 -28.5666 249° West  Level Estimated
09:14AM 61.2392 -28.8075 249° West  Level Estimated
09:15AM 61.1935 -29.0478 249° West  Level Estimated
09:16AM 61.1474 -29.2873 248° West  Level Estimated
09:17AM 61.1009 -29.5261 248° West  Level Estimated
09:18AM 61.0540 -29.7643 248° West  Level Estimated
09:19AM 61.0066 -30.0017 248° West  Level Estimated
09:20AM 60.9588 -30.2384 248° West  Level Estimated
09:21AM 60.9107 -30.4744 247° West  Level Estimated
09:22AM 60.8621 -30.7097 247° West  Level Estimated
09:23AM 60.8131 -30.9443 247° West  Level Estimated
09:24AM 60.7637 -31.1781 247° West  Level Estimated
09:25AM 60.7138 -31.4113 246° West  Level Estimated
09:26AM 60.6636 -31.6437 246° West  Level Estimated
09:27AM 60.6130 -31.8753 246° West  Level Estimated
09:28AM 60.5620 -32.1063 246° West  Level Estimated
09:29AM 60.5106 -32.3365 246° West  Level Estimated
09:30AM 60.4588 -32.5660 245° Southwest  Level Estimated
09:31AM 60.4065 -32.7948 245° Southwest  Level Estimated
09:32AM 60.3539 -33.0228 245° Southwest  Level Estimated
09:33AM 60.3009 -33.2500 245° Southwest  Level Estimated
09:34AM 60.2476 -33.4766 245° Southwest  Level Estimated
09:35AM 60.1938 -33.7024 244° Southwest  Level Estimated
09:36AM 60.1397 -33.9274 244° Southwest  Level Estimated
09:37AM 60.0852 -34.1518 244° Southwest  Level Estimated
09:38AM 60.0303 -34.3753 244° Southwest  Level Estimated
09:39AM 59.9750 -34.5982 244° Southwest  Level Estimated
09:40AM 59.9193 -34.8203 244° Southwest  Level Estimated
09:41AM 59.8633 -35.0416 243° Southwest  Level Estimated
09:42AM 59.8069 -35.2622 243° Southwest  Level Estimated
09:43AM 59.7502 -35.4820 243° Southwest  Level Estimated
09:44AM 59.6931 -35.7011 243° Southwest  Level Estimated
09:45AM 59.6356 -35.9195 243° Southwest  Level Estimated
09:46AM 59.5777 -36.1371 242° Southwest  Level Estimated
09:47AM 59.5195 -36.3539 242° Southwest  Level Estimated
09:48AM 59.4609 -36.5700 242° Southwest  Level Estimated
09:49AM 59.4020 -36.7854 242° Southwest  Level Estimated
09:50AM 59.3427 -37.0000 242° Southwest  Level Estimated
09:51AM 59.2831 -37.2138 241° Southwest  Level Estimated
09:52AM 59.2231 -37.4269 241° Southwest  Level Estimated
09:53AM 59.1628 -37.6393 241° Southwest  Level Estimated
09:54AM 59.1021 -37.8509 241° Southwest  Level Estimated
09:55AM 59.0411 -38.0617 241° Southwest  Level Estimated
09:56AM 58.9798 -38.2718 241° Southwest  Level Estimated
09:57AM 58.9181 -38.4812 240° Southwest  Level Estimated
09:58AM 58.8560 -38.6898 240° Southwest  Level Estimated
09:59AM 58.7937 -38.8976 240° Southwest  Level Estimated
10:00AM 58.7310 -39.1048 240° Southwest  Level Estimated
10:01AM 58.6680 -39.3111 240° Southwest  Level Estimated
10:02AM 58.6046 -39.5167 239° Southwest  Level Estimated
10:03AM 58.5409 -39.7216 239° Southwest  Level Estimated
10:04AM 58.4769 -39.9257 239° Southwest  Level Estimated
10:05AM 58.4126 -40.1291 239° Southwest  Level Estimated
10:06AM 58.3479 -40.3317 239° Southwest  Level Estimated
10:07AM 58.2830 -40.5336 239° Southwest  Level Estimated
10:08AM 58.2177 -40.7348 238° Southwest  Level Estimated
10:09AM 58.1521 -40.9352 238° Southwest  Level Estimated
10:10AM 58.0862 -41.1349 238° Southwest  Level Estimated
10:11AM 58.0199 -41.3338 238° Southwest  Level Estimated
10:12AM 57.9534 -41.5320 238° Southwest  Level Estimated
10:13AM 57.8865 -41.7295 238° Southwest  Level Estimated
10:14AM 57.8194 -41.9262 237° Southwest  Level Estimated
10:15AM 57.7519 -42.1222 237° Southwest  Level Estimated
10:16AM 57.6842 -42.3175 237° Southwest  Level Estimated
10:17AM 57.6161 -42.5120 237° Southwest  Level Estimated
10:18AM 57.5478 -42.7058 237° Southwest  Level Estimated
10:19AM 57.4791 -42.8989 237° Southwest  Level Estimated
10:20AM 57.4102 -43.0912 236° Southwest  Level Estimated
10:21AM 57.3410 -43.2829 236° Southwest  Level Estimated
10:22AM 57.2715 -43.4738 236° Southwest  Level Estimated
10:23AM 57.2016 -43.6640 236° Southwest  Level Estimated
10:24AM 57.1315 -43.8534 236° Southwest  Level Estimated
10:25AM 57.0612 -44.0422 236° Southwest  Level Estimated
10:26AM 56.9905 -44.2302 235° Southwest  Level Estimated
10:27AM 56.9195 -44.4175 235° Southwest  Level Estimated
10:28AM 56.8483 -44.6041 235° Southwest  Level Estimated
10:29AM 56.7768 -44.7900 235° Southwest  Level Estimated
10:30AM 56.7050 -44.9752 235° Southwest  Level Estimated
10:31AM 56.6330 -45.1597 235° Southwest  Level Estimated
10:32AM 56.5607 -45.3435 235° Southwest  Level Estimated
10:33AM 56.4881 -45.5265 234° Southwest  Level Estimated
10:34AM 56.4152 -45.7089 234° Southwest  Level Estimated
10:35AM 56.3421 -45.8906 234° Southwest  Level Estimated
10:36AM 56.2687 -46.0715 234° Southwest  Level Estimated
10:37AM 56.1950 -46.2518 234° Southwest  Level Estimated
10:38AM 56.1211 -46.4314 234° Southwest  Level Estimated
10:39AM 56.0469 -46.6103 233° Southwest  Level Estimated
10:40AM 55.9725 -46.7885 233° Southwest  Level Estimated
10:41AM 55.8978 -46.9661 233° Southwest  Level Estimated
10:42AM 55.8229 -47.1429 233° Southwest  Level Estimated
10:43AM 55.7477 -47.3191 233° Southwest  Level Estimated
10:44AM 55.6722 -47.4945 233° Southwest  Level Estimated
10:45AM 55.5965 -47.6693 233° Southwest  Level Estimated
10:46AM 55.5206 -47.8435 232° Southwest  Level Estimated
10:47AM 55.4444 -48.0169 232° Southwest  Level Estimated
10:48AM 55.3680 -48.1897 232° Southwest  Level Estimated
10:49AM 55.2913 -48.3619 232° Southwest  Level Estimated
10:50AM 55.2144 -48.5333 232° Southwest  Level Estimated
10:51AM 55.1372 -48.7041 232° Southwest  Level Estimated
10:52AM 55.0598 -48.8742 232° Southwest  Level Estimated
10:53AM 54.9822 -49.0437 231° Southwest  Level Estimated
10:54AM 54.9043 -49.2126 231° Southwest  Level Estimated
10:55AM 54.8262 -49.3807 231° Southwest  Level Estimated
10:56AM 54.7479 -49.5482 231° Southwest  Level Estimated
10:57AM 54.6693 -49.7151 231° Southwest  Level Estimated
10:58AM 54.5905 -49.8813 231° Southwest  Level Estimated
10:59AM 54.5115 -50.0469 231° Southwest  Level Estimated
11:00AM 54.4323 -50.2119 230° Southwest  Level Estimated
11:01AM 54.3528 -50.3762 230° Southwest  Level Estimated
11:02AM 54.2731 -50.5399 230° Southwest  Level Estimated
11:03AM 54.1932 -50.7029 230° Southwest  Level Estimated
11:04AM 54.1130 -50.8653 230° Southwest  Level Estimated
11:05AM 54.0327 -51.0271 230° Southwest  Level Estimated
11:06AM 53.9521 -51.1883 230° Southwest  Level Estimated
11:07AM 53.8714 -51.3488 230° Southwest  Level Estimated
11:08AM 53.7904 -51.5087 229° Southwest  Level Estimated
11:09AM 53.7092 -51.6680 229° Southwest  Level Estimated
11:10AM 53.6278 -51.8267 229° Southwest  Level Estimated
11:11AM 53.5461 -51.9847 229° Southwest  Level Estimated
11:12AM 53.4643 -52.1422 229° Southwest  Level Estimated
11:13AM 53.3823 -52.2991 229° Southwest  Level Estimated
11:14AM 53.3000 -52.4553 229° Southwest  Level Estimated
11:15AM 53.2176 -52.6110 229° Southwest  Level Estimated
11:16AM 53.1349 -52.7660 228° Southwest  Level Estimated
11:17AM 53.0521 -52.9205 228° Southwest  Level Estimated
11:18AM 52.9690 -53.0743 228° Southwest  Level Estimated
11:19AM 52.8858 -53.2276 228° Southwest  Level Estimated
11:20AM 52.8024 -53.3803 228° Southwest  Level Estimated
11:21AM 52.7187 -53.5324 228° Southwest  Level Estimated
11:22AM 52.6349 -53.6839 228° Southwest  Level Estimated
11:23AM 52.5509 -53.8348 228° Southwest  Level Estimated
11:24AM 52.4667 -53.9852 227° Southwest  Level Estimated
11:25AM 52.3823 -54.1350 227° Southwest  Level Estimated
11:26AM 52.2977 -54.2842 227° Southwest  Level Estimated
11:27AM 52.2129 -54.4328 227° Southwest  Level Estimated
11:28AM 52.1279 -54.5809 227° Southwest  Level Estimated
11:29AM 52.0428 -54.7284 227° Southwest  Level Estimated
11:30AM 51.9574 -54.8754 227° Southwest  Level Estimated
11:31AM 51.8719 -55.0217 227° Southwest  Level Estimated
11:32AM 51.7862 -55.1676 227° Southwest  Level Estimated
11:32AM 54.8167 -54.9833 226° Southwest 440 506 38,000  Level Gander Center
11:33AM 51.7003 -55.3129 226° Southwest  Level Estimated
11:33AM 54.7833 -55.2000 255° West 440 506 38,000  Level Gander Center
11:34AM 51.6143 -55.4576 226° Southwest  Level Estimated
11:34AM 54.7333 -55.3667 243° Southwest 440 506 38,000  Level Gander Center
11:35AM 51.5280 -55.6018 226° Southwest  Level Estimated
11:35AM 54.6833 -55.5833 248° West 440 506 38,000  Level Gander Center
11:36AM 51.4417 -55.7453 226° Southwest  Level Estimated
11:36AM 54.6333 -55.7667 245° Southwest 440 506 38,000  Level Gander Center
11:37AM 51.3552 -55.8882 226° Southwest  Level Estimated
11:37AM 54.5667 -55.8500 216° Southwest 450 518 38,000  Level Moncton Center
11:38AM 54.4833 -56.0167 229° Southwest 450 518 38,000  Level Moncton Center
11:39AM 54.3667 -56.1500 214° Southwest 450 518 38,000  Level Moncton Center
11:40AM 54.2833 -56.2833 223° Southwest 450 518 38,000  Level Moncton Center
11:41AM 54.1833 -56.4167 218° Southwest 450 518 38,000  Level Moncton Center
11:42AM 54.0833 -56.5500 218° Southwest 460 529 38,000  Level Moncton Center
11:43AM 53.9833 -56.6833 218° Southwest 460 529 38,000  Level Moncton Center
11:44AM 53.9000 -56.8167 223° Southwest 460 529 38,000  Level Moncton Center
11:45AM 53.7833 -56.9833 220° Southwest 460 529 38,000  Level Moncton Center
11:46AM 53.7000 -57.1000 220° Southwest 460 529 38,000  Level Moncton Center
11:47AM 53.5833 -57.2333 214° Southwest 460 529 38,000  Level Moncton Center
11:48AM 53.4833 -57.3667 218° Southwest 460 529 38,000  Level Moncton Center
11:49AM 53.3833 -57.5167 222° Southwest 460 529 38,000  Level Moncton Center
11:50AM 53.2833 -57.6500 219° Southwest 460 529 38,000  Level Moncton Center
11:51AM 53.2000 -57.7833 224° Southwest 460 529 38,000  Level Moncton Center
11:52AM 53.0833 -57.9000 211° Southwest 460 529 38,000  Level Moncton Center
11:53AM 52.9833 -58.0333 219° Southwest 460 529 38,000  Level Moncton Center
11:54AM 52.8833 -58.1833 222° Southwest 460 529 38,000  Level Moncton Center
11:55AM 52.7833 -58.3167 219° Southwest 460 529 38,000  Level Moncton Center
11:56AM 52.6833 -58.4333 215° Southwest 460 529 38,000  Level Moncton Center
11:57AM 52.5833 -58.5500 215° Southwest 460 529 38,000  Level Moncton Center
11:58AM 52.4833 -58.6833 219° Southwest 470 541 38,000  Level Moncton Center
11:59AM 52.3833 -58.8333 223° Southwest 460 529 38,000  Level Moncton Center
12:00PM 52.2833 -58.9500 216° Southwest 460 529 38,000  Level Moncton Center
12:01PM 52.1667 -59.0833 215° Southwest 460 529 38,000  Level Moncton Center
12:02PM 52.0667 -59.2000 216° Southwest 460 529 38,000  Level Moncton Center
12:03PM 51.9667 -59.3167 216° Southwest 450 518 38,000  Level Moncton Center
12:04PM 51.8667 -59.4333 216° Southwest 450 518 38,000  Level Moncton Center
12:05PM 51.7667 -59.5500 216° Southwest 450 518 38,000  Level Moncton Center
12:06PM 51.6667 -59.6667 216° Southwest 440 506 38,000  Level Moncton Center
12:07PM 51.5833 -59.7833 221° Southwest 440 506 38,000  Level Moncton Center
12:08PM 51.4667 -59.9167 215° Southwest 440 506 38,000  Level Moncton Center
12:09PM 51.3667 -60.0333 216° Southwest 440 506 38,000  Level Moncton Center
12:10PM 51.2667 -60.1500 216° Southwest 440 506 38,000  Level Moncton Center
12:11PM 51.1833 -60.2500 217° Southwest 440 506 38,000  Level Moncton Center
12:12PM 51.0833 -60.3667 216° Southwest 440 506 38,000  Level Moncton Center
12:13PM 50.9833 -60.4833 216° Southwest 440 506 38,000  Level Moncton Center
12:14PM 50.8833 -60.6000 216° Southwest 440 506 38,000  Level Moncton Center
12:15PM 50.7833 -60.7167 216° Southwest 430 495 38,000  Level Moncton Center
12:16PM 50.7000 -60.8333 222° Southwest 430 495 38,000  Level Moncton Center
12:17PM 50.6000 -60.9500 217° Southwest 430 495 38,000  Level Moncton Center
12:18PM 50.5000 -61.0500 212° Southwest 430 495 38,000  Level Moncton Center
12:19PM 50.4000 -61.1667 217° Southwest 420 483 38,000  Level Moncton Center
12:20PM 50.3000 -61.2833 217° Southwest 410 472 38,000  Level Moncton Center
12:21PM 50.2167 -61.3833 218° Southwest 410 472 38,000  Level Moncton Center
12:22PM 50.1500 -61.5167 232° Southwest 410 472 38,000  Level Moncton Center
12:23PM 50.0667 -61.6333 222° Southwest 410 472 38,000  Level Moncton Center
12:24PM 49.9833 -61.7667 226° Southwest 410 472 38,000  Level Moncton Center
12:25PM 49.9000 -61.8833 222° Southwest 410 472 38,000  Level Moncton Center
12:26PM 49.8000 -62.0167 221° Southwest 400 460 38,000  Level Moncton Center
12:27PM 49.7333 -62.1167 224° Southwest 400 460 38,000  Level Moncton Center
12:28PM 49.6333 -62.2500 221° Southwest 400 460 38,000  Level Moncton Center
12:29PM 49.5500 -62.3500 218° Southwest 410 472 38,000  Level Moncton Center
12:30PM 49.4833 -62.4833 232° Southwest 400 460 38,000  Level Moncton Center
12:31PM 49.4167 -62.6000 229° Southwest 400 460 38,000  Level Moncton Center
12:32PM 49.3333 -62.7333 226° Southwest 400 460 38,000  Level Moncton Center
12:33PM 49.2500 -62.8333 218° Southwest 400 460 38,000  Level Moncton Center
12:34PM 49.1667 -62.9333 218° Southwest 400 460 38,000  Level Moncton Center
12:35PM 49.0833 -63.0667 226° Southwest 400 460 38,000  Level Moncton Center
12:36PM 49.0000 -63.1667 218° Southwest 400 460 38,000  Level Moncton Center
12:37PM 48.9167 -63.3000 226° Southwest 400 460 38,000  Level Moncton Center
12:38PM 48.8333 -63.4000 218° Southwest 400 460 38,000  Level Moncton Center
12:39PM 48.7500 -63.5333 227° Southwest 410 472 38,000  Level Moncton Center
12:40PM 48.6500 -63.6333 213° Southwest 410 472 38,000  Level Moncton Center
12:41PM 48.5667 -63.7667 227° Southwest 410 472 38,000  Level Moncton Center
12:42PM 48.4833 -63.9000 227° Southwest 420 483 38,000  Level Moncton Center
12:43PM 48.4000 -64.0000 219° Southwest 420 483 38,000  Level Moncton Center
12:44PM 48.3167 -64.1167 223° Southwest 420 483 38,000  Level Moncton Center
12:45PM 48.2167 -64.2500 222° Southwest 430 495 38,000  Level Moncton Center
12:46PM 48.1333 -64.3500 219° Southwest 430 495 38,000  Level Moncton Center
12:47PM 48.0500 -64.4667 223° Southwest 430 495 38,000  Level Moncton Center
12:48PM 47.9500 -64.6000 222° Southwest 430 495 38,000  Level Moncton Center
12:49PM 47.8667 -64.7000 219° Southwest 430 495 38,000  Level Moncton Center
12:50PM 47.7833 -64.8167 223° Southwest 430 495 38,000  Level Moncton Center
12:51PM 47.6833 -64.9500 222° Southwest 420 483 38,000  Level Moncton Center
12:52PM 47.6000 -65.0500 219° Southwest 420 483 38,000  Level Moncton Center
12:53PM 47.5167 -65.1667 223° Southwest 410 472 38,000  Level Moncton Center
12:54PM 47.4333 -65.2667 219° Southwest 400 460 38,000  Level Moncton Center
12:55PM 47.3500 -65.3833 224° Southwest 400 460 38,000  Level Moncton Center
12:56PM 47.2667 -65.4833 219° Southwest 400 460 38,000  Level Moncton Center
12:57PM 47.1667 -65.6000 218° Southwest 410 472 38,000  Level Moncton Center
12:58PM 47.0833 -65.7000 219° Southwest 410 472 38,000  Level Moncton Center
12:59PM 47.0000 -65.8167 224° Southwest 410 472 38,000  Level Moncton Center
01:00PM 46.9167 -65.9333 224° Southwest 410 472 38,000  Level Moncton Center
01:01PM 46.8333 -66.0333 219° Southwest 410 472 38,000  Level Moncton Center
01:02PM 46.7500 -66.1333 219° Southwest 410 472 38,000  Level Moncton Center
01:03PM 46.6667 -66.2500 224° Southwest 410 472 38,000  Level Moncton Center
01:04PM 46.5833 -66.3500 220° Southwest 410 472 38,000  Level Moncton Center
01:05PM 46.4833 -66.4667 219° Southwest 400 460 38,000  Level Moncton Center
01:06PM 46.4000 -66.5500 215° Southwest 400 460 38,000  Level Moncton Center
01:07PM 46.3000 -66.6667 219° Southwest 400 460 38,000  Level Moncton Center
01:08PM 46.2333 -66.7667 226° Southwest 400 460 38,000  Level Moncton Center
01:09PM 46.1500 -66.8833 224° Southwest 400 460 38,000  Level Moncton Center
01:10PM 46.0667 -66.9833 220° Southwest 400 460 38,000  Level Moncton Center
01:11PM 45.9833 -67.1000 224° Southwest 390 449 38,000  Level Moncton Center
01:12PM 45.8833 -67.1833 210° Southwest 390 449 38,000  Level Moncton Center
01:18PM 45.3658 -67.8136 210° Southwest 385 443 38,000  Level FlightAware ADS-B (KBGR)
01:19PM 45.3171 -67.8699 219° Southwest 385 443 38,000  Level FlightAware ADS-B (KBGR)
01:19PM 45.2744 -67.9191 219° Southwest 386 444 38,000  Level FlightAware ADS-B (KBGR)
01:20PM 45.2477 -67.9497 219° Southwest 386 444 38,000  Level FlightAware ADS-B (KBGR)
01:21PM 45.1733 -68.0352 219° Southwest 386 444 38,000  Level FlightAware ADS-B (CYQI)
01:21PM 45.1158 -68.1010 219° Southwest 387 445 38,000  Level FlightAware ADS-B (KBGR)
01:22PM 45.0716 -68.1515 219° Southwest 388 447 38,000  Level FlightAware ADS-B (KBGR)
01:22PM 45.0297 -68.1993 219° Southwest 388 447 38,000  Level FlightAware ADS-B (KBGR)
01:23PM 44.9939 -68.2400 219° Southwest 389 448 38,000  Level FlightAware ADS-B (KBGR)
01:23PM 44.9325 -68.3096 219° Southwest 389 448 38,000  Level FlightAware ADS-B (KBGR)
01:24PM 44.8966 -68.3503 219° Southwest 389 448 38,000  Level FlightAware ADS-B (KBGR)
01:25PM 44.8378 -68.4166 219° Southwest 390 449 38,000  Level FlightAware ADS-B (CYSG)
01:25PM 44.7923 -68.4680 219° Southwest 391 450 38,000  Level FlightAware ADS-B (KBGR)
01:26PM 44.7421 -68.5245 219° Southwest 392 451 38,000  Level FlightAware ADS-B (CYQI)
01:26PM 44.7025 -68.5688 219° Southwest 391 450 38,000  Level FlightAware ADS-B (KBGR)
01:27PM 44.6475 -68.6305 219° Southwest 391 450 38,000  Level FlightAware ADS-B (CYQI)
01:27PM 44.6005 -68.6830 219° Southwest 391 450 38,000  Level FlightAware ADS-B (CYQI)
01:28PM 44.5607 -68.7273 218° Southwest 390 449 38,000  Level FlightAware ADS-B (CYQI)
01:28PM 44.5099 -68.7839 218° Southwest 391 450 38,000  Level FlightAware ADS-B (KBGR)
01:29PM 44.4680 -68.8304 218° Southwest 391 450 38,000  Level FlightAware ADS-B (CYSG)
01:30PM 44.4139 -68.8903 218° Southwest 392 451 38,000  Level FlightAware ADS-B (KBGR)
01:30PM 44.3595 -68.9505 218° Southwest 392 451 38,000  Level FlightAware ADS-B (CYQI)
01:31PM 44.3174 -68.9969 218° Southwest 391 450 38,000  Level FlightAware ADS-B (KBGR)
01:31PM 44.2652 -69.0543 218° Southwest 391 450 38,000  Level FlightAware ADS-B (CYSG)
01:32PM 44.2211 -69.1027 218° Southwest 392 451 38,000  Level FlightAware ADS-B
01:32PM 44.1786 -69.1492 218° Southwest 392 451 38,000  Level FlightAware ADS-B
01:33PM 44.1350 -69.1969 218° Southwest 391 450 38,000  Level FlightAware ADS-B
01:33PM 44.0935 -69.2423 218° Southwest 390 449 38,000  Level FlightAware ADS-B
01:34PM 44.0503 -69.2894 218° Southwest 390 449 38,000  Level FlightAware ADS-B
01:34PM 44.0081 -69.3353 218° Southwest 388 447 38,000  Level FlightAware ADS-B
01:35PM 43.9621 -69.3853 218° Southwest 388 447 38,000  Level FlightAware ADS-B (CYQI)
01:35PM 43.9134 -69.4380 218° Southwest 387 445 38,000  Level FlightAware ADS-B (CYQI)
01:36PM 43.8515 -69.5049 218° Southwest 387 445 38,000  Level FlightAware ADS-B
01:37PM 43.7815 -69.5803 218° Southwest 387 445 38,000  Level FlightAware ADS-B
01:37PM 43.7384 -69.6266 218° Southwest 390 449 38,000  Level FlightAware ADS-B
01:38PM 43.6936 -69.6748 218° Southwest 391 450 38,000  Level FlightAware ADS-B (KBOS)
01:38PM 43.6511 -69.7204 218° Southwest 391 450 38,000  Level FlightAware ADS-B
01:39PM 43.6014 -69.7736 218° Southwest 388 447 38,000  Level FlightAware ADS-B
01:40PM 43.5507 -69.8275 218° Southwest 386 444 38,000  Level FlightAware ADS-B
01:40PM 43.4966 -69.8850 218° Southwest 384 442 38,000  Level FlightAware ADS-B
01:41PM 43.4469 -69.9379 218° Southwest 384 442 38,000  Level FlightAware ADS-B (KBOS)
01:41PM 43.3998 -69.9876 218° Southwest 384 442 38,000  Level FlightAware ADS-B
01:42PM 43.3563 -70.0336 218° Southwest 385 443 38,000  Level FlightAware ADS-B (KBOS)
01:42PM 43.3133 -70.0790 218° Southwest 386 444 38,000  Level FlightAware ADS-B
01:43PM 43.2685 -70.1262 218° Southwest 387 445 38,000  Level FlightAware ADS-B (KBOS)
01:44PM 43.2144 -70.1831 217° Southwest 389 448 38,000  Level FlightAware ADS-B
01:44PM 43.1677 -70.2321 217° Southwest 391 450 38,000  Level FlightAware ADS-B (KBOS)
01:45PM 43.1190 -70.2831 217° Southwest 391 450 38,000  Level FlightAware ADS-B (KBOS)
01:45PM 43.0673 -70.3370 217° Southwest 390 449 38,000  Level FlightAware ADS-B
01:46PM 43.0181 -70.3884 217° Southwest 390 449 38,000  Level FlightAware ADS-B (KBOS)
01:47PM 42.9847 -70.4231 217° Southwest 390 449 38,000  Level FlightAware ADS-B
01:47PM 42.9112 -70.4994 217° Southwest 389 448 38,000  Level FlightAware ADS-B (KBOS)
01:48PM 42.8531 -70.5597 217° Southwest 388 447 38,000  Level FlightAware ADS-B (KBOS)
01:49PM 42.7962 -70.6184 217° Southwest 387 445 38,000  Level FlightAware ADS-B
01:49PM 42.7448 -70.6715 217° Southwest 389 448 38,000  Level FlightAware ADS-B
01:49PM 42.7292 -70.6875 217° Southwest 384 442 38,000  Level FlightAware ADS-B
01:49PM 42.7126 -70.7046 217° Southwest 384 442 38,000  Level FlightAware ADS-B
01:50PM 42.6960 -70.7215 217° Southwest 384 442 38,000  Level FlightAware ADS-B
01:50PM 42.6686 -70.7497 217° Southwest 384 442 38,000  Level FlightAware ADS-B
01:50PM 42.6528 -70.7660 217° Southwest 384 442 38,000  Level FlightAware ADS-B
01:50PM 42.6478 -70.7711 217° Southwest 385 443 38,000  Level FlightAware ADS-B
01:51PM 42.6229 -70.7967 217° Southwest 386 444 38,000  Level FlightAware ADS-B
01:51PM 42.6115 -70.8083 217° Southwest 386 444 38,000  Level FlightAware ADS-B
01:51PM 42.5661 -70.8567 218° Southwest 393 452 38,000  Level FlightAware ADS-B (KBOS)
01:51PM 42.5608 -70.8627 220° Southwest 386 444 38,000  Level FlightAware ADS-B
01:52PM 42.5389 -70.8879 220° Southwest 387 445 38,000  Level FlightAware ADS-B
01:52PM 42.4923 -70.9408 220° Southwest 394 453 38,000  Level FlightAware ADS-B (KBOS)
01:53PM 42.4503 -70.9878 220° Southwest 396 456 38,000  Level FlightAware ADS-B (KBOS)
01:53PM 42.4069 -71.0361 219° Southwest 397 457 38,000  Level FlightAware ADS-B
01:54PM 42.3663 -71.0810 219° Southwest 397 457 38,000  Level FlightAware ADS-B
01:54PM 42.3427 -71.1072 219° Southwest 396 456 38,000  Level FlightAware ADS-B
01:55PM 42.2844 -71.1717 219° Southwest 397 457 38,000  Level FlightAware ADS-B
01:55PM 42.2279 -71.2338 219° Southwest 395 455 38,000  Level FlightAware ADS-B
01:56PM 42.1873 -71.2784 219° Southwest 394 453 38,000  Level FlightAware ADS-B
01:56PM 42.1431 -71.3269 219° Southwest 394 453 38,000  Level FlightAware ADS-B
01:57PM 42.0983 -71.3760 219° Southwest 393 452 38,000  Level FlightAware ADS-B
01:57PM 42.0540 -71.4245 219° Southwest 392 451 38,000  Level FlightAware ADS-B
01:58PM 42.0033 -71.4797 219° Southwest 392 451 38,000  Level FlightAware ADS-B
01:58PM 41.9604 -71.5266 219° Southwest 393 452 38,000  Level FlightAware ADS-B
01:59PM 41.9163 -71.5743 219° Southwest 393 452 38,000  Level FlightAware ADS-B
01:59PM 41.8775 -71.6164 219° Southwest 394 453 38,000  Level FlightAware ADS-B
02:00PM 41.8268 -71.6714 219° Southwest 394 453 38,000  Level FlightAware ADS-B
02:01PM 41.7721 -71.7306 219° Southwest 395 455 38,000  Level FlightAware ADS-B
02:01PM 41.7262 -71.7800 219° Southwest 393 452 38,000  Level FlightAware ADS-B
02:02PM 41.6812 -71.8286 219° Southwest 392 451 38,000  Level FlightAware ADS-B (KSNC)
02:02PM 41.6514 -71.8606 219° Southwest 391 450 38,000  Level FlightAware ADS-B (KSNC)
02:03PM 41.5904 -71.9260 219° Southwest 390 449 38,000  Level FlightAware ADS-B
02:03PM 41.5434 -71.9764 219° Southwest 390 449 38,000  Level FlightAware ADS-B
02:04PM 41.4958 -72.0272 219° Southwest 388 447 38,000  Level FlightAware ADS-B
02:04PM 41.4532 -72.0726 219° Southwest 388 447 38,000  Level FlightAware ADS-B
02:05PM 41.4098 -72.1187 219° Southwest 389 448 38,000  Level FlightAware ADS-B
02:05PM 41.3697 -72.1614 219° Southwest 390 449 38,000  Level FlightAware ADS-B
02:06PM 41.3180 -72.2162 219° Southwest 390 449 38,000  Level FlightAware ADS-B
02:07PM 41.2687 -72.2683 218° Southwest 391 450 38,000  Level FlightAware ADS-B (KSNC)
02:07PM 41.2263 -72.3132 219° Southwest 391 450 38,000  Level FlightAware ADS-B (KSNC)
02:08PM 41.1788 -72.3634 218° Southwest 390 449 38,000  Level FlightAware ADS-B (KSNC)
02:08PM 41.1230 -72.4221 218° Southwest 390 449 38,000  Level FlightAware ADS-B (KSNC)
02:09PM 41.0825 -72.4647 218° Southwest 390 449 38,000  Level FlightAware ADS-B (KSNC)
02:09PM 41.0324 -72.5172 218° Southwest 389 448 38,000  Level FlightAware ADS-B
02:10PM 40.9876 -72.5641 218° Southwest 389 448 38,000  Level FlightAware ADS-B (KSNC)
02:11PM 40.9331 -72.6211 218° Southwest 387 445 38,000  Level FlightAware ADS-B
02:11PM 40.8876 -72.6685 218° Southwest 387 445 38,000  Level FlightAware ADS-B (KSNC)
02:12PM 40.8432 -72.7147 218° Southwest 388 447 38,000  Level FlightAware ADS-B (KSNC)
02:12PM 40.8002 -72.7592 218° Southwest 387 445 38,000  Level FlightAware ADS-B (KSNC)
02:13PM 40.7413 -72.8202 218° Southwest 388 447 38,000  Level FlightAware ADS-B (KSNC)
02:13PM 40.6844 -72.8792 218° Southwest 389 448 38,000  Level FlightAware ADS-B (KSNC)
02:14PM 40.6368 -72.9283 218° Southwest 388 447 38,000  Level FlightAware ADS-B (KSNC)
02:15PM 40.5825 -72.9843 218° Southwest 389 448 38,000  Level FlightAware ADS-B (KSNC)
02:15PM 40.5301 -73.0381 218° Southwest 391 450 38,000  Level FlightAware ADS-B (KSNC)
02:16PM 40.4861 -73.0833 218° Southwest 391 450 38,000  Level FlightAware ADS-B (KSNC)
02:16PM 40.4364 -73.1342 218° Southwest 390 449 38,000  Level FlightAware ADS-B (KWWD)
02:17PM 40.3729 -73.1991 218° Southwest 391 450 38,000  Level FlightAware ADS-B (KSNC)
02:18PM 40.3247 -73.2482 218° Southwest 393 452 38,000  Level FlightAware ADS-B (KWWD)
02:18PM 40.2702 -73.3036 218° Southwest 393 452 38,000  Level FlightAware ADS-B (KSNC)
02:19PM 40.2255 -73.3491 218° Southwest 393 452 38,000  Level FlightAware ADS-B (KSNC)
02:20PM 40.1617 -73.4139 218° Southwest 393 452 38,000  Level FlightAware ADS-B (KWWD)
02:20PM 40.1235 -73.4526 218° Southwest 392 451 38,000  Level FlightAware ADS-B (KSNC)
02:21PM 40.0708 -73.5059 218° Southwest 390 449 38,000  Level FlightAware ADS-B (KSNC)
02:21PM 40.0295 -73.5473 218° Southwest 388 447 38,000  Level FlightAware ADS-B (KSNC)
02:22PM 39.9837 -73.5934 218° Southwest 388 447 38,000  Level FlightAware ADS-B (KSNC)
02:22PM 39.9346 -73.6427 218° Southwest 389 448 38,000  Level FlightAware ADS-B (KSNC)
02:23PM 39.8940 -73.6834 218° Southwest 392 451 38,000  Level FlightAware ADS-B (KSNC)
02:23PM 39.8471 -73.7304 218° Southwest 387 445 38,000  Level FlightAware ADS-B (KWWD)
02:24PM 39.7999 -73.7775 218° Southwest 395 455 38,000  Level FlightAware ADS-B (KSNC)
02:24PM 39.7543 -73.8231 218° Southwest 395 455 38,000  Level FlightAware ADS-B (KSNC)
02:25PM 39.7049 -73.8724 217° Southwest 389 448 38,000  Level FlightAware ADS-B (KWWD)
02:26PM 39.6456 -73.9312 217° Southwest 388 447 38,000  Level FlightAware ADS-B (KWWD)
02:26PM 39.5867 -73.9896 217° Southwest 388 447 38,000  Level FlightAware ADS-B (KWWD)
02:27PM 39.5265 -74.0492 217° Southwest 391 450 38,000  Level FlightAware ADS-B (KWWD)
02:27PM 39.4768 -74.0983 217° Southwest 394 453 38,000  Level FlightAware ADS-B (KWWD)
02:28PM 39.4303 -74.1442 217° Southwest 402 463 38,000  Level FlightAware ADS-B (KWWD)
02:29PM 39.3836 -74.1901 217° Southwest 402 463 38,000  Level FlightAware ADS-B (KWWD)
02:29PM 39.3366 -74.2363 217° Southwest 402 463 38,000  Level FlightAware ADS-B (KWWD)
02:30PM 39.2922 -74.2798 217° Southwest 404 465 38,000  Level FlightAware ADS-B (KWWD)
02:30PM 39.2333 -74.3375 217° Southwest 406 467 38,000  Level FlightAware ADS-B (KWWD)
02:31PM 39.1905 -74.3793 217° Southwest 407 468 38,000  Level FlightAware ADS-B (KWWD)
02:31PM 39.1318 -74.4367 217° Southwest 407 468 38,000  Level FlightAware ADS-B (KWWD)
02:33PM 38.9501 -74.6128 217° Southwest 403 464 38,000  Level FlightAware ADS-B (KWWD)
02:34PM 38.9016 -74.6597 217° Southwest 405 466 38,000  Level FlightAware ADS-B (KWWD)
02:34PM 38.8565 -74.7034 217° Southwest 406 467 38,000  Level FlightAware ADS-B (KWWD)
02:35PM 38.7953 -74.7623 217° Southwest 406 467 38,000  Level FlightAware ADS-B (KWWD)
02:36PM 38.7502 -74.8057 217° Southwest 405 466 38,000  Level FlightAware ADS-B (KWWD)
02:37PM 38.6339 -74.9172 217° Southwest 405 466 38,000  Level FlightAware ADS-B (KWWD)
02:38PM 38.5647 -74.9834 217° Southwest 406 467 38,000  Level FlightAware ADS-B (KWWD)
02:38PM 38.4879 -75.0565 217° Southwest 406 467 38,000  Level FlightAware ADS-B (KWWD)
02:39PM 38.4456 -75.0968 217° Southwest 412 474 38,000  Level FlightAware ADS-B (KSBY)
02:39PM 38.3928 -75.1468 217° Southwest 412 474 38,000  Level FlightAware ADS-B (KSBY)
02:40PM 38.3350 -75.2017 217° Southwest 405 466 38,000  Level FlightAware ADS-B (KWWD)
02:41PM 38.2849 -75.2491 217° Southwest 412 474 38,000  Level FlightAware ADS-B (KSBY)
02:41PM 38.2200 -75.3103 217° Southwest 412 474 38,000  Level FlightAware ADS-B (KSBY)
02:42PM 38.1669 -75.3604 217° Southwest 405 466 38,000  Level FlightAware ADS-B (KWWD)
02:43PM 38.1099 -75.4140 217° Southwest 411 473 38,000  Level FlightAware ADS-B (KSBY)
02:43PM 38.0861 -75.4363 216° Southwest 411 473 38,000  Level FlightAware ADS-B (KSBY)
02:44PM 38.0145 -75.4952 213° Southwest 409 471 38,000  Level FlightAware ADS-B (KWWD)
02:44PM 37.9491 -75.5452 211° Southwest 417 480 38,000  Level FlightAware ADS-B (KWWD)
02:45PM 37.8946 -75.5867 211° Southwest 417 480 38,000  Level FlightAware ADS-B (KWWD)
02:45PM 37.8407 -75.6276 211° Southwest 417 480 38,000  Level FlightAware ADS-B (KSBY)
02:46PM 37.7843 -75.6702 211° Southwest 416 479 38,000  Level FlightAware ADS-B (KWWD)
02:46PM 37.7299 -75.7111 211° Southwest 416 479 38,000  Level FlightAware ADS-B (KWWD)
02:47PM 37.6796 -75.7487 211° Southwest 414 476 38,000  Level FlightAware ADS-B (KWWD)
02:48PM 37.6253 -75.7894 211° Southwest 414 476 38,000  Level FlightAware ADS-B (KWWD)
02:48PM 37.5364 -75.8548 210° Southwest 418 481 38,000  Level FlightAware ADS-B (KWWD)
02:49PM 37.4793 -75.8861 204° Southwest 418 481 38,000  Level FlightAware ADS-B (KWWD)
02:49PM 37.4255 -75.9154 203° Southwest 425 489 38,000  Level FlightAware ADS-B (KWWD)
02:50PM 37.3527 -75.9552 204° Southwest 420 483 38,000  Level FlightAware ADS-B (KWWD)
02:51PM 37.2991 -75.9839 203° Southwest 420 483 38,000  Level FlightAware ADS-B (KWWD)
02:51PM 37.2420 -76.0144 203° Southwest 419 482 38,000  Level FlightAware ADS-B (KWWD)
02:52PM 37.1801 -76.0475 203° Southwest 419 482 38,000  Level FlightAware ADS-B (KWWD)
02:52PM 37.1211 -76.0789 203° Southwest 420 483 38,000  Level FlightAware ADS-B (KWWD)
02:53PM 37.0566 -76.1132 203° Southwest 422 486 38,000  Level FlightAware ADS-B (KWWD)
02:53PM 36.9984 -76.1441 203° Southwest 424 488 38,000  Level FlightAware ADS-B (KWWD)
02:54PM 36.9424 -76.1738 203° Southwest 424 488 38,000  Level FlightAware ADS-B (KWWD)
02:55PM 36.8745 -76.2173 207° Southwest 420 483 38,000  Level FlightAware ADS-B (KWWD)
02:55PM 36.7940 -76.2893 216° Southwest 407 468 38,000  Level FlightAware ADS-B (KWWD)
02:56PM 36.7462 -76.3334 216° Southwest 406 467 38,000  Level FlightAware ADS-B (KWWD)
02:57PM 36.6827 -76.3912 216° Southwest 405 466 38,000  Level FlightAware ADS-B (KWWD)
02:57PM 36.6289 -76.4401 216° Southwest 405 466 38,000  Level FlightAware ADS-B (KWWD)
02:58PM 36.5493 -76.5122 216° Southwest 405 466 38,000  Level FlightAware ADS-B (KWWD)
03:00PM 36.3693 -76.6746 216° Southwest 414 476 38,000  Level FlightAware ADS-B (KWWD)
03:02PM 36.2203 -76.8083 216° Southwest 406 467 38,000  Level FlightAware ADS-B (KWWD)
03:03PM 36.1344 -76.8831 216° Southwest 414 476 38,000  Level Washington Center
03:04PM 36.0439 -76.9664 217° Southwest 419 482 38,000  Level Washington Center
03:05PM 35.9489 -77.0494 215° Southwest 419 482 38,000  Level Washington Center
03:10PM 35.2599 -77.3235 215° Southwest 417 480 38,000  Level FlightAware ADS-B
03:10PM 35.2402 -77.3307 197° South 445 512 38,000  Level FlightAware ADS-B
03:12PM 35.0817 -77.3887 197° South 446 513 38,000  Level FlightAware ADS-B
03:12PM 35.0272 -77.4085 197° South 447 514 38,000  Level FlightAware ADS-B
03:13PM 34.9430 -77.4392 197° South 449 517 38,000  Level FlightAware ADS-B
03:13PM 34.8831 -77.4609 197° South 450 518 38,000  Level FlightAware ADS-B
03:14PM 34.8210 -77.4834 197° South 451 519 38,000  Level FlightAware ADS-B
03:15PM 34.7447 -77.5111 197° South 451 519 38,000  Level FlightAware ADS-B
03:15PM 34.6849 -77.5326 197° South 451 519 38,000  Level FlightAware ADS-B
03:16PM 34.6239 -77.5547 197° South 451 519 38,000  Level FlightAware ADS-B
03:16PM 34.5448 -77.5831 197° South 453 521 38,000  Level FlightAware ADS-B
03:17PM 34.4628 -77.6126 197° South 454 522 38,000  Level FlightAware ADS-B
03:17PM 34.3979 -77.6359 196° South 455 524 38,000  Level FlightAware ADS-B
03:19PM 34.2831 -77.6781 196° South 444 511 38,000  Level Washington Center
03:20PM 34.1656 -77.7178 196° South 449 517 38,000  Level Washington Center
03:21PM 34.0017 -77.7753 196° South 464 534 38,000  Level Jacksonville Center
03:22PM 33.8783 -77.8197 197° South 459 528 38,000  Level Jacksonville Center
03:23PM 33.7611 -77.8617 197° South 453 521 38,000  Level Jacksonville Center
03:24PM 33.6253 -77.9092 196° South 453 521 38,000  Level Jacksonville Center
03:25PM 33.5081 -77.9508 197° South 453 521 38,000  Level Jacksonville Center
03:26PM 33.3867 -77.9922 196° South 448 516 38,000  Level Jacksonville Center
03:27PM 33.2692 -78.0336 196° South 448 516 38,000  Level Jacksonville Center
03:28PM 33.1478 -78.0772 197° South 453 521 38,000  Level Jacksonville Center
03:29PM 33.0281 -78.1158 195° South 453 521 38,000  Level Jacksonville Center
03:30PM 32.9086 -78.1569 196° South 453 521 38,000  Level Jacksonville Center
03:31PM 32.7892 -78.1978 196° South 453 521 38,000  Level Jacksonville Center
03:32PM 32.6717 -78.2383 196° South 453 521 38,000  Level Jacksonville Center
03:33PM 32.5500 -78.2792 196° South 453 521 38,000  Level Jacksonville Center
03:34PM 32.4306 -78.3197 196° South 448 516 38,000  Level Jacksonville Center
03:35PM 32.3233 -78.3619 198° South 454 522 38,000  Level Jacksonville Center
03:36PM 32.2058 -78.4022 196° South 454 522 38,000  Level Jacksonville Center
03:37PM 32.0864 -78.4422 196° South 454 522 38,000  Level Jacksonville Center
03:38PM 31.9542 -78.4878 196° South 454 522 38,000  Level Jacksonville Center
03:39PM 31.8367 -78.5253 195° South 454 522 38,000  Level Jacksonville Center
03:40PM 31.7150 -78.5700 197° South 454 522 38,000  Level Jacksonville Center
03:41PM 31.5972 -78.6072 195° South 454 522 38,000  Level Jacksonville Center
03:42PM 31.4736 -78.6519 197° South 454 522 38,000  Level Jacksonville Center
03:43PM 31.3558 -78.6889 195° South 448 516 38,000  Level Jacksonville Center
03:44PM 31.2317 -78.7286 195° South 453 521 38,000  Level Jacksonville Center
03:45PM 31.1119 -78.7678 196° South 453 521 38,000  Level Jacksonville Center
03:46PM 30.9900 -78.8069 195° South 453 521 38,000  Level Jacksonville Center
03:47PM 30.8744 -78.8483 197° South 446 513 38,000  Level Jacksonville Center
03:48PM 30.7528 -78.8897 196° South 446 513 38,000  Level Jacksonville Center
03:50PM 30.5567 -78.9508 195° South 456 525 38,000  Level Miami Center
03:51PM 30.4375 -78.9917 196° South 456 525 38,000  Level Miami Center
03:52PM 30.3158 -79.0397 199° South 456 525 38,000  Level Miami Center
03:53PM 30.1942 -79.0875 199° South 470 541 38,000  Level Miami Center
03:54PM 30.0725 -79.1353 199° South 464 534 38,000  Level Miami Center
03:55PM 29.9422 -79.1925 201° Southwest 464 534 38,000  Level Miami Center
03:56PM 29.8228 -79.2378 198° South 464 534 38,000  Level Miami Center
03:57PM 29.6989 -79.2803 197° South 464 534 38,000  Level Miami Center
03:58PM 29.5772 -79.3278 199° South 464 534 38,000  Level Miami Center
03:59PM 29.4556 -79.3728 198° South 464 534 38,000  Level Miami Center
04:00PM 29.3358 -79.4200 199° South 464 534 38,000  Level Miami Center
04:01PM 29.2139 -79.4669 199° South 464 534 38,000  Level Miami Center
04:02PM 29.0919 -79.5117 198° South 469 540 38,000  Level Miami Center
04:03PM 28.9722 -79.5586 199° South 469 540 38,000  Level Miami Center
04:04PM 28.8461 -79.6028 197° South 469 540 38,000  Level Miami Center
04:05PM 28.7283 -79.6497 199° South 469 540 38,000  Level Miami Center
04:06PM 28.6025 -79.6939 197° South 469 540 38,000  Level Miami Center
04:07PM 28.4806 -79.7403 198° South 469 540 38,000  Level Miami Center
04:08PM 28.3564 -79.7867 198° South 469 540 38,000  Level Miami Center
04:09PM 28.2344 -79.8306 198° South 469 540 38,000  Level Miami Center
04:10PM 28.1125 -79.8769 199° South 469 540 38,000  Level Miami Center
04:11PM 27.9944 -79.9208 198° South 455 524 38,000  Level Miami Center
04:12PM 27.8853 -79.9600 198° South 455 524 38,000  Level Miami Center
04:13PM 27.7442 -80.0103 198° South 468 539 38,000  Level Miami Center
04:14PM 27.6222 -80.0561 198° South 468 539 38,000  Level Miami Center
04:15PM 27.4978 -80.1017 198° South 468 539 38,000  Level Miami Center
04:16PM 27.3758 -80.1475 198° South 468 539 38,000  Level Miami Center
04:17PM 27.2747 -80.1844 198° South 468 539 38,000  Level Miami Center
04:18PM 27.1253 -80.2383 198° South 468 539 38,000  Level Miami Center
04:19PM 27.0008 -80.2836 198° South 468 539 38,000  Level Miami Center
04:20PM 26.8767 -80.3289 198° South 468 539 38,000  Level Miami Center
04:21PM 26.7544 -80.3742 198° South 468 539 38,000  Level Miami Center
04:22PM 26.6408 -80.4150 198° South 468 539 38,000  Level Miami Center
04:23PM 26.5039 -80.4642 198° South 473 544 38,000  Level Miami Center
04:24PM 26.3900 -80.5047 198° South 473 544 38,000  Level Miami Center
04:25PM 26.2728 -80.5939 214° Southwest 464 534 38,000  Level Miami Center
04:26PM 26.1789 -80.6764 218° Southwest 453 521 38,000  Level Miami Center
04:27PM 26.0783 -80.7636 218° Southwest 453 521 38,000  Level Miami Center
04:28PM 25.9819 -80.8506 219° Southwest 453 521 38,000  Level Miami Center
04:29PM 25.8817 -80.9347 217° Southwest 453 521 38,000  Level Miami Center
04:30PM 25.7831 -81.0214 218° Southwest 453 521 38,000  Level Miami Center
04:31PM 25.6931 -81.0992 218° Southwest 453 521 38,000  Level Miami Center
04:32PM 25.5947 -81.1831 218° Southwest 453 521 38,000  Level Miami Center
04:33PM 25.4939 -81.2669 217° Southwest 453 521 38,000  Level Miami Center
04:34PM 25.3931 -81.3528 218° Southwest 453 521 38,000  Level Miami Center
04:35PM 25.2922 -81.4411 218° Southwest 458 527 38,000  Level Miami Center
04:36PM 25.1917 -81.5244 217° Southwest 458 527 38,000  Level Miami Center
04:37PM 25.0928 -81.6103 218° Southwest 458 527 38,000  Level Miami Center
04:38PM 24.9919 -81.6956 217° Southwest 458 527 38,000  Level Miami Center
04:39PM 24.8908 -81.7786 217° Southwest 452 520 38,000 -240 Level Miami Center
04:40PM 24.7919 -81.8639 218° Southwest 452 520 37,600 -1,500 Descending Miami Center
04:41PM 24.6889 -81.9489 217° Southwest 459 528 35,100 -2,220 Descending Miami Center
04:42PM 24.5878 -82.0336 217° Southwest 459 528 33,200 -1,920 Descending Miami Center
04:43PM 24.4847 -82.1161 216° Southwest 459 528 31,300 -1,860 Descending Miami Center
04:44PM 24.3900 -82.1942 217° Southwest 452 520 29,500 -1,800 Descending Miami Center
04:45PM 24.2933 -82.2744 217° Southwest 447 514 27,700 -1,800 Descending Miami Center
04:46PM 24.2028 -82.3522 218° Southwest 435 501 25,900 -1,920 Descending Miami Center
04:47PM 24.0994 -82.4364 217° Southwest 425 489 23,900 -1,860 Descending Miami Center
04:48PM 24.0053 -82.4958 210° Southwest 420 483 22,200 -1,740 Descending Miami Center
04:50PM 23.8065 -82.4788 176° South  Level Estimated
04:57PM 23.0115 -82.4110 176° South  Level Estimated
04:58PM 22.9891 -82.4091 176° South  Level Estimated
04:59PM 22.9891 -82.4091 51° Northeast  Level Estimated
05:00PM 22.9891 -82.4091 51° Northeast  Level Estimated
05:01PM 22.9891 -82.4091 51° Northeast  Level Estimated
05:02PM 22.9891 -82.4091 51° Northeast  Level Estimated
05:03PM 22.9891 -82.4091 51° Northeast  Level Estimated
05:04PM 22.9891 -82.4091 51° Northeast  Level Estimated
05:05PM 22.9891 -82.4091 51° Northeast  Level Estimated
05:06PM 22.9891 -82.4091 51° Northeast  Level Estimated
05:07PM 22.9891 -82.4091 51° Northeast  Level Estimated
05:08PM 22.9891 -82.4091 51° Northeast  Level Estimated
05:09PM 22.9891 -82.4091 51° Northeast  Level Estimated
05:10PM 22.9891 -82.4091 51° Northeast  Level Estimated
05:11PM 22.9891 -82.4091 51° Northeast  Level Estimated
05:12PM 22.9891 -82.4091 51° Northeast  Level Estimated
05:13PM 22.9891 -82.4091 51° Northeast  Level Estimated
05:14PM 22.9891 -82.4091 51° Northeast  Level Estimated
05:15PM 22.9891 -82.4091 51° Northeast  Level Estimated
05:16PM 22.9891 -82.4091 51° Northeast  Level Estimated
05:17PM 22.9891 -82.4091 51° Northeast  Level Estimated